sensor_id;sensor_type;location;lat;lon;timestamp;P1;durP1;ratioP1;P2;durP2;ratioP2
15708;SDS011;7954;51.914;8.420;2023-04-24T00:01:59;0.67;;;0.67;;
15708;SDS011;7954;51.914;8.420;2023-04-24T00:04:27;0.60;;;0.60;;
15708;SDS011;7954;51.914;8.420;2023-04-24T00:06:55;0.77;;;0.73;;
15708;SDS011;7954;51.914;8.420;2023-04-24T00:09:23;0.57;;;0.57;;
15708;SDS011;7954;51.914;8.420;2023-04-24T00:11:54;0.80;;;0.80;;
15708;SDS011;7954;51.914;8.420;2023-04-24T00:14:22;0.87;;;0.87;;
15708;SDS011;7954;51.914;8.420;2023-04-24T00:16:50;0.70;;;0.70;;
15708;SDS011;7954;51.914;8.420;2023-04-24T00:19:19;0.80;;;0.70;;
15708;SDS011;7954;51.914;8.420;2023-04-24T00:21:48;0.60;;;0.60;;
15708;SDS011;7954;51.914;8.420;2023-04-24T00:24:17;1.10;;;0.80;;
15708;SDS011;7954;51.914;8.420;2023-04-24T00:26:45;0.73;;;0.73;;
15708;SDS011;7954;51.914;8.420;2023-04-24T00:29:14;0.80;;;0.80;;
15708;SDS011;7954;51.914;8.420;2023-04-24T00:31:42;0.60;;;0.60;;
15708;SDS011;7954;51.914;8.420;2023-04-24T00:34:10;2.20;;;0.90;;
15708;SDS011;7954;51.914;8.420;2023-04-24T00:36:39;0.70;;;0.70;;
15708;SDS011;7954;51.914;8.420;2023-04-24T00:39:06;1.00;;;0.80;;
15708;SDS011;7954;51.914;8.420;2023-04-24T00:41:35;0.80;;;0.80;;
15708;SDS011;7954;51.914;8.420;2023-04-24T00:44:03;0.70;;;0.70;;
15708;SDS011;7954;51.914;8.420;2023-04-24T00:46:32;0.70;;;0.70;;
15708;SDS011;7954;51.914;8.420;2023-04-24T00:49:01;1.30;;;1.13;;
15708;SDS011;7954;51.914;8.420;2023-04-24T00:51:30;0.90;;;0.90;;
15708;SDS011;7954;51.914;8.420;2023-04-24T00:53:59;0.70;;;0.70;;
15708;SDS011;7954;51.914;8.420;2023-04-24T00:56:27;0.90;;;0.90;;
15708;SDS011;7954;51.914;8.420;2023-04-24T00:58:55;1.00;;;1.00;;
15708;SDS011;7954;51.914;8.420;2023-04-24T01:01:23;0.80;;;0.80;;
15708;SDS011;7954;51.914;8.420;2023-04-24T01:03:52;0.80;;;0.80;;
15708;SDS011;7954;51.914;8.420;2023-04-24T01:06:21;0.90;;;0.90;;
15708;SDS011;7954;51.914;8.420;2023-04-24T01:08:49;2.13;;;0.97;;
15708;SDS011;7954;51.914;8.420;2023-04-24T01:11:17;0.90;;;0.90;;
15708;SDS011;7954;51.914;8.420;2023-04-24T01:13:46;0.80;;;0.80;;
15708;SDS011;7954;51.914;8.420;2023-04-24T01:16:14;0.90;;;0.90;;
15708;SDS011;7954;51.914;8.420;2023-04-24T01:18:43;0.70;;;0.70;;
15708;SDS011;7954;51.914;8.420;2023-04-24T01:21:14;0.90;;;0.90;;
15708;SDS011;7954;51.914;8.420;2023-04-24T01:23:45;0.80;;;0.80;;
15708;SDS011;7954;51.914;8.420;2023-04-24T01:26:15;1.10;;;0.90;;
15708;SDS011;7954;51.914;8.420;2023-04-24T01:28:46;0.80;;;0.80;;
15708;SDS011;7954;51.914;8.420;2023-04-24T01:31:15;0.90;;;0.90;;
15708;SDS011;7954;51.914;8.420;2023-04-24T01:33:44;0.90;;;0.90;;
15708;SDS011;7954;51.914;8.420;2023-04-24T01:36:12;0.93;;;0.93;;
15708;SDS011;7954;51.914;8.420;2023-04-24T01:38:41;0.80;;;0.80;;
15708;SDS011;7954;51.914;8.420;2023-04-24T01:41:10;0.70;;;0.70;;
15708;SDS011;7954;51.914;8.420;2023-04-24T01:43:38;1.73;;;0.80;;
15708;SDS011;7954;51.914;8.420;2023-04-24T01:46:07;0.70;;;0.70;;
15708;SDS011;7954;51.914;8.420;2023-04-24T01:48:35;0.77;;;0.77;;
15708;SDS011;7954;51.914;8.420;2023-04-24T01:51:03;0.90;;;0.90;;
15708;SDS011;7954;51.914;8.420;2023-04-24T01:53:32;1.17;;;1.07;;
15708;SDS011;7954;51.914;8.420;2023-04-24T01:56:00;0.80;;;0.80;;
15708;SDS011;7954;51.914;8.420;2023-04-24T01:58:30;0.70;;;0.70;;
15708;SDS011;7954;51.914;8.420;2023-04-24T02:00:59;0.77;;;0.77;;
15708;SDS011;7954;51.914;8.420;2023-04-24T02:03:27;0.80;;;0.80;;
15708;SDS011;7954;51.914;8.420;2023-04-24T02:05:56;0.80;;;0.80;;
15708;SDS011;7954;51.914;8.420;2023-04-24T02:08:25;0.87;;;0.87;;
15708;SDS011;7954;51.914;8.420;2023-04-24T02:10:53;1.13;;;0.80;;
15708;SDS011;7954;51.914;8.420;2023-04-24T02:13:21;1.57;;;0.90;;
15708;SDS011;7954;51.914;8.420;2023-04-24T02:15:51;0.90;;;0.90;;
15708;SDS011;7954;51.914;8.420;2023-04-24T02:18:19;0.70;;;0.70;;
15708;SDS011;7954;51.914;8.420;2023-04-24T02:20:47;1.63;;;0.90;;
15708;SDS011;7954;51.914;8.420;2023-04-24T02:23:14;0.80;;;0.80;;
15708;SDS011;7954;51.914;8.420;2023-04-24T02:25:43;1.20;;;0.97;;
15708;SDS011;7954;51.914;8.420;2023-04-24T02:28:10;1.03;;;1.03;;
15708;SDS011;7954;51.914;8.420;2023-04-24T02:30:38;1.07;;;1.07;;
15708;SDS011;7954;51.914;8.420;2023-04-24T02:33:08;1.20;;;0.97;;
15708;SDS011;7954;51.914;8.420;2023-04-24T02:35:36;0.90;;;0.90;;
15708;SDS011;7954;51.914;8.420;2023-04-24T02:38:04;1.43;;;1.07;;
15708;SDS011;7954;51.914;8.420;2023-04-24T02:40:33;1.40;;;1.30;;
15708;SDS011;7954;51.914;8.420;2023-04-24T02:43:01;0.90;;;0.90;;
15708;SDS011;7954;51.914;8.420;2023-04-24T02:45:29;1.10;;;1.00;;
15708;SDS011;7954;51.914;8.420;2023-04-24T02:47:57;0.90;;;0.90;;
15708;SDS011;7954;51.914;8.420;2023-04-24T02:50:26;0.90;;;0.90;;
15708;SDS011;7954;51.914;8.420;2023-04-24T02:52:54;0.90;;;0.90;;
15708;SDS011;7954;51.914;8.420;2023-04-24T02:55:22;0.93;;;0.93;;
15708;SDS011;7954;51.914;8.420;2023-04-24T02:57:50;0.80;;;0.80;;
15708;SDS011;7954;51.914;8.420;2023-04-24T03:00:18;0.90;;;0.90;;
15708;SDS011;7954;51.914;8.420;2023-04-24T03:02:46;1.23;;;0.90;;
15708;SDS011;7954;51.914;8.420;2023-04-24T03:05:14;0.90;;;0.90;;
15708;SDS011;7954;51.914;8.420;2023-04-24T03:07:43;0.80;;;0.80;;
15708;SDS011;7954;51.914;8.420;2023-04-24T03:10:12;0.80;;;0.80;;
15708;SDS011;7954;51.914;8.420;2023-04-24T03:12:39;0.80;;;0.80;;
15708;SDS011;7954;51.914;8.420;2023-04-24T03:15:08;0.70;;;0.70;;
15708;SDS011;7954;51.914;8.420;2023-04-24T03:17:37;0.80;;;0.80;;
15708;SDS011;7954;51.914;8.420;2023-04-24T03:20:05;1.20;;;1.10;;
15708;SDS011;7954;51.914;8.420;2023-04-24T03:22:34;0.67;;;0.67;;
15708;SDS011;7954;51.914;8.420;2023-04-24T03:25:04;0.80;;;0.80;;
15708;SDS011;7954;51.914;8.420;2023-04-24T03:27:34;0.77;;;0.77;;
15708;SDS011;7954;51.914;8.420;2023-04-24T03:30:02;0.90;;;0.90;;
15708;SDS011;7954;51.914;8.420;2023-04-24T03:32:30;1.27;;;1.17;;
15708;SDS011;7954;51.914;8.420;2023-04-24T03:34:59;1.03;;;1.00;;
15708;SDS011;7954;51.914;8.420;2023-04-24T03:37:28;0.90;;;0.90;;
15708;SDS011;7954;51.914;8.420;2023-04-24T03:39:56;1.20;;;0.93;;
15708;SDS011;7954;51.914;8.420;2023-04-24T03:42:25;0.80;;;0.80;;
15708;SDS011;7954;51.914;8.420;2023-04-24T03:44:53;1.00;;;1.00;;
15708;SDS011;7954;51.914;8.420;2023-04-24T03:47:21;1.20;;;1.10;;
15708;SDS011;7954;51.914;8.420;2023-04-24T03:49:49;1.20;;;1.10;;
15708;SDS011;7954;51.914;8.420;2023-04-24T03:52:17;1.47;;;1.20;;
15708;SDS011;7954;51.914;8.420;2023-04-24T03:54:45;1.57;;;1.10;;
15708;SDS011;7954;51.914;8.420;2023-04-24T03:57:13;1.87;;;1.13;;
15708;SDS011;7954;51.914;8.420;2023-04-24T03:59:42;1.10;;;1.10;;
15708;SDS011;7954;51.914;8.420;2023-04-24T04:02:10;1.30;;;1.20;;
15708;SDS011;7954;51.914;8.420;2023-04-24T04:04:39;1.20;;;1.10;;
15708;SDS011;7954;51.914;8.420;2023-04-24T04:07:07;1.90;;;1.33;;
15708;SDS011;7954;51.914;8.420;2023-04-24T04:09:35;1.60;;;1.30;;
15708;SDS011;7954;51.914;8.420;2023-04-24T04:12:03;1.60;;;1.50;;
15708;SDS011;7954;51.914;8.420;2023-04-24T04:14:31;2.80;;;1.40;;
15708;SDS011;7954;51.914;8.420;2023-04-24T04:17:00;1.40;;;1.30;;
15708;SDS011;7954;51.914;8.420;2023-04-24T04:19:30;1.77;;;1.37;;
15708;SDS011;7954;51.914;8.420;2023-04-24T04:21:58;1.47;;;1.37;;
15708;SDS011;7954;51.914;8.420;2023-04-24T04:24:28;1.10;;;1.10;;
15708;SDS011;7954;51.914;8.420;2023-04-24T04:26:56;1.40;;;1.30;;
15708;SDS011;7954;51.914;8.420;2023-04-24T04:29:24;1.20;;;1.10;;
15708;SDS011;7954;51.914;8.420;2023-04-24T04:31:52;1.30;;;1.20;;
15708;SDS011;7954;51.914;8.420;2023-04-24T04:34:22;1.80;;;1.60;;
15708;SDS011;7954;51.914;8.420;2023-04-24T04:36:50;1.40;;;1.30;;
15708;SDS011;7954;51.914;8.420;2023-04-24T04:39:19;1.40;;;1.30;;
15708;SDS011;7954;51.914;8.420;2023-04-24T04:41:47;1.53;;;1.43;;
15708;SDS011;7954;51.914;8.420;2023-04-24T04:44:15;3.57;;;2.33;;
15708;SDS011;7954;51.914;8.420;2023-04-24T04:46:42;3.07;;;2.77;;
15708;SDS011;7954;51.914;8.420;2023-04-24T04:49:10;4.57;;;3.80;;
15708;SDS011;7954;51.914;8.420;2023-04-24T04:51:41;4.13;;;3.73;;
15708;SDS011;7954;51.914;8.420;2023-04-24T04:54:08;4.83;;;4.20;;
15708;SDS011;7954;51.914;8.420;2023-04-24T04:56:36;4.70;;;4.20;;
15708;SDS011;7954;51.914;8.420;2023-04-24T04:59:04;4.47;;;4.07;;
15708;SDS011;7954;51.914;8.420;2023-04-24T05:01:33;4.60;;;4.20;;
15708;SDS011;7954;51.914;8.420;2023-04-24T05:04:01;4.27;;;3.87;;
15708;SDS011;7954;51.914;8.420;2023-04-24T05:06:29;4.63;;;4.23;;
15708;SDS011;7954;51.914;8.420;2023-04-24T05:08:59;4.77;;;4.37;;
15708;SDS011;7954;51.914;8.420;2023-04-24T05:11:27;5.13;;;4.57;;
15708;SDS011;7954;51.914;8.420;2023-04-24T05:13:55;5.10;;;4.70;;
15708;SDS011;7954;51.914;8.420;2023-04-24T05:16:23;4.87;;;4.47;;
15708;SDS011;7954;51.914;8.420;2023-04-24T05:18:51;5.37;;;4.87;;
15708;SDS011;7954;51.914;8.420;2023-04-24T05:21:19;5.63;;;5.23;;
15708;SDS011;7954;51.914;8.420;2023-04-24T05:23:47;6.90;;;5.83;;
15708;SDS011;7954;51.914;8.420;2023-04-24T05:26:17;5.80;;;5.30;;
15708;SDS011;7954;51.914;8.420;2023-04-24T05:28:45;7.00;;;6.30;;
15708;SDS011;7954;51.914;8.420;2023-04-24T05:31:13;6.63;;;6.00;;
15708;SDS011;7954;51.914;8.420;2023-04-24T05:33:41;6.53;;;5.93;;
15708;SDS011;7954;51.914;8.420;2023-04-24T05:36:09;6.80;;;6.20;;
15708;SDS011;7954;51.914;8.420;2023-04-24T05:38:37;7.13;;;6.20;;
15708;SDS011;7954;51.914;8.420;2023-04-24T05:41:05;7.17;;;6.57;;
15708;SDS011;7954;51.914;8.420;2023-04-24T05:43:34;7.80;;;7.07;;
15708;SDS011;7954;51.914;8.420;2023-04-24T05:46:02;7.37;;;6.67;;
15708;SDS011;7954;51.914;8.420;2023-04-24T05:48:31;8.90;;;6.57;;
15708;SDS011;7954;51.914;8.420;2023-04-24T05:50:58;6.60;;;6.00;;
15708;SDS011;7954;51.914;8.420;2023-04-24T05:53:28;6.93;;;6.40;;
15708;SDS011;7954;51.914;8.420;2023-04-24T05:55:56;6.40;;;5.80;;
15708;SDS011;7954;51.914;8.420;2023-04-24T05:58:24;6.97;;;6.37;;
15708;SDS011;7954;51.914;8.420;2023-04-24T06:00:53;7.27;;;6.57;;
15708;SDS011;7954;51.914;8.420;2023-04-24T06:03:22;6.80;;;5.97;;
15708;SDS011;7954;51.914;8.420;2023-04-24T06:05:52;6.70;;;6.20;;
15708;SDS011;7954;51.914;8.420;2023-04-24T06:08:21;6.63;;;6.03;;
15708;SDS011;7954;51.914;8.420;2023-04-24T06:10:49;6.63;;;5.97;;
15708;SDS011;7954;51.914;8.420;2023-04-24T06:13:19;6.63;;;6.00;;
15708;SDS011;7954;51.914;8.420;2023-04-24T06:15:47;6.90;;;5.90;;
15708;SDS011;7954;51.914;8.420;2023-04-24T06:18:17;6.17;;;5.60;;
15708;SDS011;7954;51.914;8.420;2023-04-24T06:20:45;7.60;;;6.47;;
15708;SDS011;7954;51.914;8.420;2023-04-24T06:23:14;7.23;;;6.53;;
15708;SDS011;7954;51.914;8.420;2023-04-24T06:25:42;7.93;;;7.13;;
15708;SDS011;7954;51.914;8.420;2023-04-24T06:28:11;7.03;;;6.43;;
15708;SDS011;7954;51.914;8.420;2023-04-24T06:30:40;6.70;;;6.10;;
15708;SDS011;7954;51.914;8.420;2023-04-24T06:33:07;6.53;;;6.00;;
15708;SDS011;7954;51.914;8.420;2023-04-24T06:35:47;7.13;;;6.43;;
15708;SDS011;7954;51.914;8.420;2023-04-24T06:38:15;7.33;;;6.63;;
15708;SDS011;7954;51.914;8.420;2023-04-24T06:40:43;7.10;;;6.23;;
15708;SDS011;7954;51.914;8.420;2023-04-24T06:43:11;6.70;;;6.10;;
15708;SDS011;7954;51.914;8.420;2023-04-24T06:45:40;10.27;;;7.63;;
15708;SDS011;7954;51.914;8.420;2023-04-24T06:48:12;6.63;;;6.10;;
15708;SDS011;7954;51.914;8.420;2023-04-24T06:50:40;6.57;;;5.97;;
15708;SDS011;7954;51.914;8.420;2023-04-24T06:53:10;7.30;;;6.63;;
15708;SDS011;7954;51.914;8.420;2023-04-24T06:55:39;6.87;;;6.27;;
15708;SDS011;7954;51.914;8.420;2023-04-24T06:58:07;6.37;;;5.80;;
15708;SDS011;7954;51.914;8.420;2023-04-24T07:00:35;6.20;;;5.70;;
15708;SDS011;7954;51.914;8.420;2023-04-24T07:03:02;6.80;;;6.00;;
15708;SDS011;7954;51.914;8.420;2023-04-24T07:05:33;7.20;;;6.50;;
15708;SDS011;7954;51.914;8.420;2023-04-24T07:08:01;10.33;;;5.80;;
15708;SDS011;7954;51.914;8.420;2023-04-24T07:10:32;6.77;;;5.97;;
15708;SDS011;7954;51.914;8.420;2023-04-24T07:13:01;6.27;;;5.67;;
15708;SDS011;7954;51.914;8.420;2023-04-24T07:15:29;5.63;;;5.13;;
15708;SDS011;7954;51.914;8.420;2023-04-24T07:17:58;5.70;;;5.20;;
15708;SDS011;7954;51.914;8.420;2023-04-24T07:20:30;6.13;;;5.63;;
15708;SDS011;7954;51.914;8.420;2023-04-24T07:22:58;5.13;;;4.73;;
15708;SDS011;7954;51.914;8.420;2023-04-24T07:25:25;4.70;;;4.30;;
15708;SDS011;7954;51.914;8.420;2023-04-24T07:27:55;4.27;;;3.90;;
15708;SDS011;7954;51.914;8.420;2023-04-24T07:30:23;4.23;;;3.90;;
15708;SDS011;7954;51.914;8.420;2023-04-24T07:32:51;4.20;;;3.90;;
15708;SDS011;7954;51.914;8.420;2023-04-24T07:35:21;4.20;;;3.80;;
15708;SDS011;7954;51.914;8.420;2023-04-24T07:37:49;3.70;;;3.40;;
15708;SDS011;7954;51.914;8.420;2023-04-24T07:40:17;3.50;;;3.20;;
15708;SDS011;7954;51.914;8.420;2023-04-24T07:42:44;3.73;;;3.30;;
15708;SDS011;7954;51.914;8.420;2023-04-24T07:45:16;3.77;;;3.47;;
15708;SDS011;7954;51.914;8.420;2023-04-24T07:47:45;3.77;;;3.47;;
15708;SDS011;7954;51.914;8.420;2023-04-24T07:50:14;3.50;;;3.20;;
15708;SDS011;7954;51.914;8.420;2023-04-24T07:52:42;4.47;;;3.20;;
15708;SDS011;7954;51.914;8.420;2023-04-24T07:55:09;3.40;;;3.10;;
15708;SDS011;7954;51.914;8.420;2023-04-24T07:57:37;3.10;;;2.80;;
15708;SDS011;7954;51.914;8.420;2023-04-24T08:00:06;3.90;;;3.37;;
15708;SDS011;7954;51.914;8.420;2023-04-24T08:02:35;2.90;;;2.70;;
15708;SDS011;7954;51.914;8.420;2023-04-24T08:05:04;2.60;;;2.40;;
15708;SDS011;7954;51.914;8.420;2023-04-24T08:07:33;2.93;;;2.60;;
15708;SDS011;7954;51.914;8.420;2023-04-24T08:10:01;4.17;;;2.90;;
15708;SDS011;7954;51.914;8.420;2023-04-24T08:12:30;3.33;;;2.60;;
15708;SDS011;7954;51.914;8.420;2023-04-24T08:14:58;2.50;;;2.30;;
15708;SDS011;7954;51.914;8.420;2023-04-24T08:17:26;2.60;;;2.40;;
15708;SDS011;7954;51.914;8.420;2023-04-24T08:19:55;2.40;;;2.20;;
15708;SDS011;7954;51.914;8.420;2023-04-24T08:22:27;2.47;;;1.90;;
15708;SDS011;7954;51.914;8.420;2023-04-24T08:24:56;2.10;;;1.90;;
15708;SDS011;7954;51.914;8.420;2023-04-24T08:27:24;2.53;;;2.00;;
15708;SDS011;7954;51.914;8.420;2023-04-24T08:29:53;2.00;;;1.80;;
15708;SDS011;7954;51.914;8.420;2023-04-24T08:32:22;2.37;;;2.10;;
15708;SDS011;7954;51.914;8.420;2023-04-24T08:34:52;1.70;;;1.60;;
15708;SDS011;7954;51.914;8.420;2023-04-24T08:37:25;1.50;;;1.40;;
15708;SDS011;7954;51.914;8.420;2023-04-24T08:39:54;1.60;;;1.50;;
15708;SDS011;7954;51.914;8.420;2023-04-24T08:42:22;3.47;;;1.80;;
15708;SDS011;7954;51.914;8.420;2023-04-24T08:44:50;1.60;;;1.50;;
15708;SDS011;7954;51.914;8.420;2023-04-24T08:47:18;1.80;;;1.70;;
15708;SDS011;7954;51.914;8.420;2023-04-24T08:49:48;2.73;;;2.03;;
15708;SDS011;7954;51.914;8.420;2023-04-24T08:52:18;1.83;;;1.70;;
15708;SDS011;7954;51.914;8.420;2023-04-24T08:54:47;2.10;;;1.90;;
15708;SDS011;7954;51.914;8.420;2023-04-24T08:57:17;2.93;;;1.80;;
15708;SDS011;7954;51.914;8.420;2023-04-24T08:59:46;1.60;;;1.50;;
15708;SDS011;7954;51.914;8.420;2023-04-24T09:02:14;1.70;;;1.60;;
15708;SDS011;7954;51.914;8.420;2023-04-24T09:04:43;1.53;;;1.40;;
15708;SDS011;7954;51.914;8.420;2023-04-24T09:07:14;1.80;;;1.70;;
15708;SDS011;7954;51.914;8.420;2023-04-24T09:09:44;1.50;;;1.40;;
15708;SDS011;7954;51.914;8.420;2023-04-24T09:12:14;1.50;;;1.40;;
15708;SDS011;7954;51.914;8.420;2023-04-24T09:14:41;1.50;;;1.40;;
15708;SDS011;7954;51.914;8.420;2023-04-24T09:17:12;1.50;;;1.40;;
15708;SDS011;7954;51.914;8.420;2023-04-24T09:19:40;1.47;;;1.37;;
15708;SDS011;7954;51.914;8.420;2023-04-24T09:22:08;0.90;;;0.90;;
15708;SDS011;7954;51.914;8.420;2023-04-24T09:24:37;1.07;;;1.07;;
15708;SDS011;7954;51.914;8.420;2023-04-24T09:27:06;1.73;;;1.00;;
15708;SDS011;7954;51.914;8.420;2023-04-24T09:29:38;1.33;;;1.20;;
15708;SDS011;7954;51.914;8.420;2023-04-24T09:32:19;1.20;;;1.10;;
15708;SDS011;7954;51.914;8.420;2023-04-24T09:34:48;1.20;;;1.10;;
15708;SDS011;7954;51.914;8.420;2023-04-24T09:40:15;1.57;;;1.43;;
15708;SDS011;7954;51.914;8.420;2023-04-24T09:42:44;1.30;;;1.20;;
15708;SDS011;7954;51.914;8.420;2023-04-24T09:45:14;1.33;;;1.23;;
15708;SDS011;7954;51.914;8.420;2023-04-24T09:47:42;1.30;;;1.20;;
15708;SDS011;7954;51.914;8.420;2023-04-24T09:50:12;1.63;;;1.07;;
15708;SDS011;7954;51.914;8.420;2023-04-24T09:52:43;1.93;;;1.10;;
15708;SDS011;7954;51.914;8.420;2023-04-24T09:55:12;1.10;;;1.00;;
15708;SDS011;7954;51.914;8.420;2023-04-24T09:57:47;1.30;;;1.13;;
15708;SDS011;7954;51.914;8.420;2023-04-24T10:03:02;1.30;;;1.13;;
15708;SDS011;7954;51.914;8.420;2023-04-24T10:05:32;0.70;;;0.70;;
15708;SDS011;7954;51.914;8.420;2023-04-24T10:08:04;2.13;;;0.90;;
15708;SDS011;7954;51.914;8.420;2023-04-24T10:10:35;0.90;;;0.90;;
15708;SDS011;7954;51.914;8.420;2023-04-24T10:13:06;0.90;;;0.80;;
15708;SDS011;7954;51.914;8.420;2023-04-24T10:15:36;3.23;;;1.23;;
15708;SDS011;7954;51.914;8.420;2023-04-24T10:18:04;2.30;;;1.30;;
15708;SDS011;7954;51.914;8.420;2023-04-24T10:20:34;2.17;;;1.10;;
15708;SDS011;7954;51.914;8.420;2023-04-24T10:23:03;1.30;;;1.20;;
15708;SDS011;7954;51.914;8.420;2023-04-24T10:25:32;1.00;;;1.00;;
15708;SDS011;7954;51.914;8.420;2023-04-24T10:28:01;1.60;;;1.10;;
15708;SDS011;7954;51.914;8.420;2023-04-24T10:30:31;1.60;;;1.50;;
15708;SDS011;7954;51.914;8.420;2023-04-24T10:33:04;1.30;;;1.20;;
15708;SDS011;7954;51.914;8.420;2023-04-24T10:35:37;1.20;;;1.10;;
15708;SDS011;7954;51.914;8.420;2023-04-24T10:38:08;1.50;;;1.40;;
15708;SDS011;7954;51.914;8.420;2023-04-24T10:40:39;1.53;;;1.43;;
15708;SDS011;7954;51.914;8.420;2023-04-24T10:43:08;1.50;;;1.40;;
15708;SDS011;7954;51.914;8.420;2023-04-24T10:45:39;2.30;;;2.10;;
15708;SDS011;7954;51.914;8.420;2023-04-24T10:48:09;1.10;;;1.10;;
15708;SDS011;7954;51.914;8.420;2023-04-24T10:50:44;0.90;;;0.90;;
15708;SDS011;7954;51.914;8.420;2023-04-24T10:53:14;0.90;;;0.90;;
15708;SDS011;7954;51.914;8.420;2023-04-24T10:55:44;0.93;;;0.93;;
15708;SDS011;7954;51.914;8.420;2023-04-24T10:58:14;10.37;;;1.93;;
15708;SDS011;7954;51.914;8.420;2023-04-24T11:00:43;2.10;;;1.40;;
15708;SDS011;7954;51.914;8.420;2023-04-24T11:03:26;1.50;;;1.30;;
15708;SDS011;7954;51.914;8.420;2023-04-24T11:05:57;1.30;;;1.20;;
15708;SDS011;7954;51.914;8.420;2023-04-24T11:08:27;1.40;;;1.30;;
15708;SDS011;7954;51.914;8.420;2023-04-24T11:11:01;1.40;;;1.30;;
15708;SDS011;7954;51.914;8.420;2023-04-24T11:16:38;1.80;;;1.60;;
15708;SDS011;7954;51.914;8.420;2023-04-24T11:19:20;2.27;;;1.60;;
15708;SDS011;7954;51.914;8.420;2023-04-24T11:21:58;2.87;;;1.73;;
15708;SDS011;7954;51.914;8.420;2023-04-24T11:24:31;1.87;;;1.77;;
15708;SDS011;7954;51.914;8.420;2023-04-24T11:27:05;2.23;;;2.03;;
15708;SDS011;7954;51.914;8.420;2023-04-24T11:29:38;2.60;;;1.87;;
15708;SDS011;7954;51.914;8.420;2023-04-24T11:32:18;2.40;;;2.20;;
15708;SDS011;7954;51.914;8.420;2023-04-24T11:34:52;2.50;;;2.30;;
15708;SDS011;7954;51.914;8.420;2023-04-24T11:37:22;2.80;;;2.50;;
15708;SDS011;7954;51.914;8.420;2023-04-24T11:39:52;2.80;;;2.60;;
15708;SDS011;7954;51.914;8.420;2023-04-24T11:42:21;3.40;;;3.20;;
15708;SDS011;7954;51.914;8.420;2023-04-24T11:44:53;2.90;;;2.70;;
15708;SDS011;7954;51.914;8.420;2023-04-24T11:47:30;3.23;;;2.93;;
15708;SDS011;7954;51.914;8.420;2023-04-24T11:50:03;3.37;;;3.07;;
15708;SDS011;7954;51.914;8.420;2023-04-24T11:52:33;3.10;;;2.70;;
15708;SDS011;7954;51.914;8.420;2023-04-24T11:55:05;3.60;;;2.60;;
15708;SDS011;7954;51.914;8.420;2023-04-24T11:57:34;2.87;;;2.60;;
15708;SDS011;7954;51.914;8.420;2023-04-24T12:00:03;4.30;;;3.30;;
15708;SDS011;7954;51.914;8.420;2023-04-24T12:02:33;14.47;;;12.53;;
15708;SDS011;7954;51.914;8.420;2023-04-24T12:05:07;4.43;;;4.03;;
15708;SDS011;7954;51.914;8.420;2023-04-24T12:07:40;6.93;;;6.33;;
15708;SDS011;7954;51.914;8.420;2023-04-24T12:10:10;12.47;;;11.20;;
15708;SDS011;7954;51.914;8.420;2023-04-24T12:12:39;6.33;;;5.73;;
15708;SDS011;7954;51.914;8.420;2023-04-24T12:15:07;11.33;;;10.23;;
15708;SDS011;7954;51.914;8.420;2023-04-24T12:17:40;7.50;;;5.73;;
15708;SDS011;7954;51.914;8.420;2023-04-24T12:20:11;5.07;;;4.57;;
15708;SDS011;7954;51.914;8.420;2023-04-24T12:22:44;10.57;;;9.47;;
15708;SDS011;7954;51.914;8.420;2023-04-24T12:25:15;5.00;;;4.50;;
15708;SDS011;7954;51.914;8.420;2023-04-24T12:27:44;5.40;;;3.10;;
15708;SDS011;7954;51.914;8.420;2023-04-24T12:30:15;3.97;;;3.40;;
15708;SDS011;7954;51.914;8.420;2023-04-24T12:32:46;5.43;;;3.57;;
15708;SDS011;7954;51.914;8.420;2023-04-24T12:35:20;4.90;;;4.07;;
15708;SDS011;7954;51.914;8.420;2023-04-24T12:37:50;4.27;;;3.60;;
15708;SDS011;7954;51.914;8.420;2023-04-24T12:40:20;3.97;;;3.57;;
15708;SDS011;7954;51.914;8.420;2023-04-24T12:42:55;3.87;;;3.43;;
15708;SDS011;7954;51.914;8.420;2023-04-24T12:45:23;6.03;;;4.20;;
15708;SDS011;7954;51.914;8.420;2023-04-24T12:47:53;4.07;;;3.70;;
15708;SDS011;7954;51.914;8.420;2023-04-24T12:50:23;5.70;;;4.23;;
15708;SDS011;7954;51.914;8.420;2023-04-24T12:52:50;3.80;;;3.43;;
15708;SDS011;7954;51.914;8.420;2023-04-24T12:55:19;4.23;;;3.60;;
15708;SDS011;7954;51.914;8.420;2023-04-24T12:57:46;4.10;;;3.60;;
15708;SDS011;7954;51.914;8.420;2023-04-24T13:00:15;5.27;;;4.37;;
15708;SDS011;7954;51.914;8.420;2023-04-24T13:02:45;7.20;;;4.50;;
15708;SDS011;7954;51.914;8.420;2023-04-24T13:05:14;8.20;;;5.03;;
15708;SDS011;7954;51.914;8.420;2023-04-24T13:07:45;6.47;;;4.47;;
15708;SDS011;7954;51.914;8.420;2023-04-24T13:10:14;7.33;;;5.20;;
15708;SDS011;7954;51.914;8.420;2023-04-24T13:12:42;7.10;;;5.83;;
15708;SDS011;7954;51.914;8.420;2023-04-24T13:15:12;7.37;;;5.80;;
15708;SDS011;7954;51.914;8.420;2023-04-24T13:17:40;7.83;;;5.43;;
15708;SDS011;7954;51.914;8.420;2023-04-24T13:20:10;8.57;;;5.93;;
15708;SDS011;7954;51.914;8.420;2023-04-24T13:22:38;8.20;;;5.60;;
15708;SDS011;7954;51.914;8.420;2023-04-24T13:25:08;9.03;;;5.90;;
15708;SDS011;7954;51.914;8.420;2023-04-24T13:27:37;11.23;;;6.30;;
15708;SDS011;7954;51.914;8.420;2023-04-24T13:30:06;8.23;;;5.33;;
15708;SDS011;7954;51.914;8.420;2023-04-24T13:32:36;10.20;;;6.80;;
15708;SDS011;7954;51.914;8.420;2023-04-24T13:35:04;9.17;;;5.30;;
15708;SDS011;7954;51.914;8.420;2023-04-24T13:37:33;11.03;;;5.70;;
15708;SDS011;7954;51.914;8.420;2023-04-24T13:40:01;11.67;;;6.13;;
15708;SDS011;7954;51.914;8.420;2023-04-24T13:42:32;9.83;;;6.27;;
15708;SDS011;7954;51.914;8.420;2023-04-24T13:45:00;12.03;;;7.07;;
15708;SDS011;7954;51.914;8.420;2023-04-24T13:47:47;13.63;;;7.87;;
15708;SDS011;7954;51.914;8.420;2023-04-24T13:50:17;12.07;;;7.10;;
15708;SDS011;7954;51.914;8.420;2023-04-24T13:52:45;11.50;;;7.20;;
15708;SDS011;7954;51.914;8.420;2023-04-24T13:55:13;13.67;;;8.20;;
15708;SDS011;7954;51.914;8.420;2023-04-24T13:57:42;10.90;;;7.40;;
15708;SDS011;7954;51.914;8.420;2023-04-24T14:00:11;10.83;;;6.53;;
15708;SDS011;7954;51.914;8.420;2023-04-24T14:02:39;11.03;;;6.60;;
15708;SDS011;7954;51.914;8.420;2023-04-24T14:05:08;10.77;;;6.73;;
15708;SDS011;7954;51.914;8.420;2023-04-24T14:07:37;10.33;;;6.53;;
15708;SDS011;7954;51.914;8.420;2023-04-24T14:10:05;9.27;;;6.50;;
15708;SDS011;7954;51.914;8.420;2023-04-24T14:12:34;9.57;;;7.23;;
15708;SDS011;7954;51.914;8.420;2023-04-24T14:15:04;10.50;;;7.77;;
15708;SDS011;7954;51.914;8.420;2023-04-24T14:17:32;11.50;;;7.53;;
15708;SDS011;7954;51.914;8.420;2023-04-24T14:20:00;11.17;;;6.97;;
15708;SDS011;7954;51.914;8.420;2023-04-24T14:22:30;10.47;;;6.87;;
15708;SDS011;7954;51.914;8.420;2023-04-24T14:24:57;12.10;;;5.93;;
15708;SDS011;7954;51.914;8.420;2023-04-24T14:27:26;10.77;;;5.60;;
15708;SDS011;7954;51.914;8.420;2023-04-24T14:29:54;9.80;;;5.03;;
15708;SDS011;7954;51.914;8.420;2023-04-24T14:32:23;9.80;;;5.20;;
15708;SDS011;7954;51.914;8.420;2023-04-24T14:34:51;7.13;;;3.97;;
15708;SDS011;7954;51.914;8.420;2023-04-24T14:37:19;9.07;;;4.47;;
15708;SDS011;7954;51.914;8.420;2023-04-24T14:39:47;6.90;;;4.57;;
15708;SDS011;7954;51.914;8.420;2023-04-24T14:42:35;8.77;;;5.13;;
15708;SDS011;7954;51.914;8.420;2023-04-24T14:45:04;6.33;;;4.00;;
15708;SDS011;7954;51.914;8.420;2023-04-24T14:47:34;6.07;;;3.63;;
15708;SDS011;7954;51.914;8.420;2023-04-24T14:50:03;5.03;;;3.40;;
15708;SDS011;7954;51.914;8.420;2023-04-24T14:52:32;6.63;;;3.67;;
15708;SDS011;7954;51.914;8.420;2023-04-24T14:55:00;5.17;;;3.77;;
15708;SDS011;7954;51.914;8.420;2023-04-24T14:57:30;4.20;;;2.97;;
15708;SDS011;7954;51.914;8.420;2023-04-24T14:59:58;5.83;;;3.37;;
15708;SDS011;7954;51.914;8.420;2023-04-24T15:02:26;6.67;;;3.90;;
15708;SDS011;7954;51.914;8.420;2023-04-24T15:04:58;3.77;;;2.97;;
15708;SDS011;7954;51.914;8.420;2023-04-24T15:07:26;5.53;;;2.80;;
15708;SDS011;7954;51.914;8.420;2023-04-24T15:09:56;3.90;;;3.27;;
15708;SDS011;7954;51.914;8.420;2023-04-24T15:12:24;4.27;;;3.30;;
15708;SDS011;7954;51.914;8.420;2023-04-24T15:14:52;4.13;;;2.90;;
15708;SDS011;7954;51.914;8.420;2023-04-24T15:17:20;2.70;;;2.30;;
15708;SDS011;7954;51.914;8.420;2023-04-24T15:19:47;4.03;;;2.90;;
15708;SDS011;7954;51.914;8.420;2023-04-24T15:22:17;3.30;;;2.73;;